Airfield :







YOU CAN JOIN US ON...

 
LOGIN :

Register | Disclaimer

   EN    FR    IT 

 









Legend :    VFR   Marginal VFR   IFR   Intensive IFR   Very Intensive IFR
Visi :
Ceiling :
>= 8 km
>= 3000ft
5 to 8 km
1000 to 3000 ft
1500m to 5 km
500 to 1000 ft
800 to 1500m
200 to 500 ft
< 800m
< 200 ft
Symbols :   Thunderstorms  Fog  Heavy snow  Heavy precipitations  Wind > 20 kt






- Airport Elevation : 266 ft
- IATA code : MHT


KMHT - Manchester

CURRENT METAR :
  • 270515Z 04006KT 2SM -DZ BR OVC003 04/03 A2983 RMK AO2 P0000 T00440033

EXPIRED METARs :
  • 270453Z 03005KT 1SM R35/P6000FT -DZ BR OVC003 04/03 A2984 RMK AO2 SFC VIS 1 1/2 DZB50 SLP119 P0000 T00440033 401060028
  • 270353Z 04005KT 1SM R35/P6000FT BR OVC004 04/03 A2987 RMK AO2 SFC VIS 1 1/2 SLP132 T00440033
  • 270253Z 06005KT 1SM R35/P6000FT BR OVC002 04/03 A2990 RMK AO2 SFC VIS 1 1/4 SLP141 T00440033 58018

TAF KMHT
Valid from the 27 at 06:00 until the 28 at 06:00 UTC


270523Z 2706/2806 03009KT 2SM -DZ BR OVC003
FM270800 07011KT 2SM -RA OVC004
FM271000 13014KT 2SM +RA OVC004
FM271500 19013KT P6SM OVC015
FM272100 25015G23KT P6SM SCT040



MET'MAP, your aeronautical weather chart ! - Copyright ORBIFLY December 2007 - Disclaimer

ORBIFLY MET'MAP TEAM :

Programming & Development : Alexandra Zaïnal
Concept & original design : Baudouin d'Aumeries
Assistance for programming : Marc-Olivier Méhu
Technical & hardware support : Manuel Goepfert

Contact : metmap@orbifly.com




SOURCES & CREDITS :

   NOAA